sensor_id;sensor_type;location;lat;lon;timestamp;P1;durP1;ratioP1;P2;durP2;ratioP2
21274;SDS011;36472;52.170;20.884;2023-08-20T00:00:16;19.50;;;16.23;;
21274;SDS011;36472;52.170;20.884;2023-08-20T00:03:08;18.55;;;16.67;;
21274;SDS011;36472;52.170;20.884;2023-08-20T00:05:41;18.50;;;16.60;;
21274;SDS011;36472;52.170;20.884;2023-08-20T00:08:11;20.05;;;17.92;;
21274;SDS011;36472;52.170;20.884;2023-08-20T00:10:40;19.05;;;17.15;;
21274;SDS011;36472;52.170;20.884;2023-08-20T00:13:08;19.05;;;17.05;;
21274;SDS011;36472;52.170;20.884;2023-08-20T00:15:39;18.30;;;16.45;;
21274;SDS011;36472;52.170;20.884;2023-08-20T00:18:09;18.17;;;16.48;;
21274;SDS011;36472;52.170;20.884;2023-08-20T00:20:39;20.48;;;16.60;;
21274;SDS011;36472;52.170;20.884;2023-08-20T00:23:09;19.40;;;17.25;;
21274;SDS011;36472;52.170;20.884;2023-08-20T00:25:39;18.25;;;16.55;;
21274;SDS011;36472;52.170;20.884;2023-08-20T00:28:08;17.95;;;16.25;;
21274;SDS011;36472;52.170;20.884;2023-08-20T00:30:37;18.52;;;16.83;;
21274;SDS011;36472;52.170;20.884;2023-08-20T00:33:08;18.70;;;16.70;;
21274;SDS011;36472;52.170;20.884;2023-08-20T00:40:10;19.42;;;17.42;;
21274;SDS011;36472;52.170;20.884;2023-08-20T00:42:39;20.73;;;17.55;;
21274;SDS011;36472;52.170;20.884;2023-08-20T00:45:08;18.35;;;16.45;;
21274;SDS011;36472;52.170;20.884;2023-08-20T00:47:39;19.83;;;17.92;;
21274;SDS011;36472;52.170;20.884;2023-08-20T00:50:09;18.38;;;16.50;;
21274;SDS011;36472;52.170;20.884;2023-08-20T00:52:39;18.95;;;17.25;;
21274;SDS011;36472;52.170;20.884;2023-08-20T00:55:09;18.90;;;16.90;;
21274;SDS011;36472;52.170;20.884;2023-08-20T00:57:40;19.40;;;17.45;;
21274;SDS011;36472;52.170;20.884;2023-08-20T01:00:10;19.10;;;17.17;;
21274;SDS011;36472;52.170;20.884;2023-08-20T01:02:41;19.30;;;17.50;;
21274;SDS011;36472;52.170;20.884;2023-08-20T01:05:14;18.35;;;16.50;;
21274;SDS011;36472;52.170;20.884;2023-08-20T01:10:47;18.05;;;16.25;;
21274;SDS011;36472;52.170;20.884;2023-08-20T01:13:25;19.08;;;17.17;;
21274;SDS011;36472;52.170;20.884;2023-08-20T01:15:55;18.88;;;17.08;;
21274;SDS011;36472;52.170;20.884;2023-08-20T01:18:25;19.25;;;17.38;;
21274;SDS011;36472;52.170;20.884;2023-08-20T01:20:55;18.85;;;16.95;;
21274;SDS011;36472;52.170;20.884;2023-08-20T01:23:45;18.17;;;16.42;;
21274;SDS011;36472;52.170;20.884;2023-08-20T01:29:30;18.95;;;17.02;;
21274;SDS011;36472;52.170;20.884;2023-08-20T01:32:00;18.05;;;16.30;;
21274;SDS011;36472;52.170;20.884;2023-08-20T01:34:32;18.25;;;16.48;;
21274;SDS011;36472;52.170;20.884;2023-08-20T01:37:01;18.45;;;16.60;;
21274;SDS011;36472;52.170;20.884;2023-08-20T01:39:30;18.20;;;16.50;;
21274;SDS011;36472;52.170;20.884;2023-08-20T01:41:59;18.92;;;17.05;;
21274;SDS011;36472;52.170;20.884;2023-08-20T01:44:30;19.55;;;17.40;;
21274;SDS011;36472;52.170;20.884;2023-08-20T01:46:59;19.77;;;16.83;;
21274;SDS011;36472;52.170;20.884;2023-08-20T01:49:28;18.48;;;16.67;;
21274;SDS011;36472;52.170;20.884;2023-08-20T01:51:57;19.30;;;17.25;;
21274;SDS011;36472;52.170;20.884;2023-08-20T01:54:26;18.42;;;16.40;;
21274;SDS011;36472;52.170;20.884;2023-08-20T01:56:56;18.90;;;17.08;;
21274;SDS011;36472;52.170;20.884;2023-08-20T01:59:25;17.55;;;16.05;;
21274;SDS011;36472;52.170;20.884;2023-08-20T02:01:56;18.85;;;17.15;;
21274;SDS011;36472;52.170;20.884;2023-08-20T02:04:24;17.83;;;16.17;;
21274;SDS011;36472;52.170;20.884;2023-08-20T02:06:54;18.73;;;16.63;;
21274;SDS011;36472;52.170;20.884;2023-08-20T02:09:22;19.52;;;17.52;;
21274;SDS011;36472;52.170;20.884;2023-08-20T02:11:52;18.60;;;16.98;;
21274;SDS011;36472;52.170;20.884;2023-08-20T02:14:21;17.65;;;15.95;;
21274;SDS011;36472;52.170;20.884;2023-08-20T02:16:50;18.60;;;16.73;;
21274;SDS011;36472;52.170;20.884;2023-08-20T02:19:20;18.17;;;16.48;;
21274;SDS011;36472;52.170;20.884;2023-08-20T02:21:49;17.38;;;15.68;;
21274;SDS011;36472;52.170;20.884;2023-08-20T02:24:18;18.23;;;16.42;;
21274;SDS011;36472;52.170;20.884;2023-08-20T02:26:48;19.48;;;16.73;;
21274;SDS011;36472;52.170;20.884;2023-08-20T02:29:17;17.90;;;16.27;;
21274;SDS011;36472;52.170;20.884;2023-08-20T02:31:46;17.73;;;16.00;;
21274;SDS011;36472;52.170;20.884;2023-08-20T02:34:16;22.35;;;17.77;;
21274;SDS011;36472;52.170;20.884;2023-08-20T02:36:48;18.60;;;16.65;;
21274;SDS011;36472;52.170;20.884;2023-08-20T02:39:17;18.60;;;16.80;;
21274;SDS011;36472;52.170;20.884;2023-08-20T02:41:47;19.00;;;16.88;;
21274;SDS011;36472;52.170;20.884;2023-08-20T02:44:16;17.90;;;16.15;;
21274;SDS011;36472;52.170;20.884;2023-08-20T02:46:46;16.88;;;15.25;;
21274;SDS011;36472;52.170;20.884;2023-08-20T02:49:15;20.10;;;16.60;;
21274;SDS011;36472;52.170;20.884;2023-08-20T02:51:44;18.65;;;16.55;;
21274;SDS011;36472;52.170;20.884;2023-08-20T02:54:14;18.95;;;16.92;;
21274;SDS011;36472;52.170;20.884;2023-08-20T02:56:44;17.60;;;16.00;;
21274;SDS011;36472;52.170;20.884;2023-08-20T02:59:12;18.17;;;16.48;;
21274;SDS011;36472;52.170;20.884;2023-08-20T03:01:42;17.85;;;16.02;;
21274;SDS011;36472;52.170;20.884;2023-08-20T03:04:11;18.23;;;16.35;;
21274;SDS011;36472;52.170;20.884;2023-08-20T03:06:40;18.55;;;16.20;;
21274;SDS011;36472;52.170;20.884;2023-08-20T03:09:09;18.27;;;16.55;;
21274;SDS011;36472;52.170;20.884;2023-08-20T03:11:39;19.48;;;17.65;;
21274;SDS011;36472;52.170;20.884;2023-08-20T03:14:08;18.40;;;15.55;;
21274;SDS011;36472;52.170;20.884;2023-08-20T03:16:37;18.67;;;16.83;;
21274;SDS011;36472;52.170;20.884;2023-08-20T03:19:06;19.33;;;17.15;;
21274;SDS011;36472;52.170;20.884;2023-08-20T03:21:35;20.67;;;18.35;;
21274;SDS011;36472;52.170;20.884;2023-08-20T03:24:05;17.90;;;16.20;;
21274;SDS011;36472;52.170;20.884;2023-08-20T03:26:37;18.58;;;16.70;;
21274;SDS011;36472;52.170;20.884;2023-08-20T03:29:07;19.65;;;17.55;;
21274;SDS011;36472;52.170;20.884;2023-08-20T03:31:38;20.40;;;17.63;;
21274;SDS011;36472;52.170;20.884;2023-08-20T03:34:08;19.02;;;17.17;;
21274;SDS011;36472;52.170;20.884;2023-08-20T03:36:37;19.70;;;17.58;;
21274;SDS011;36472;52.170;20.884;2023-08-20T03:39:06;18.65;;;16.92;;
21274;SDS011;36472;52.170;20.884;2023-08-20T03:41:36;18.98;;;17.17;;
21274;SDS011;36472;52.170;20.884;2023-08-20T03:44:05;18.63;;;16.85;;
21274;SDS011;36472;52.170;20.884;2023-08-20T03:46:36;18.42;;;16.63;;
21274;SDS011;36472;52.170;20.884;2023-08-20T03:49:05;19.08;;;17.38;;
21274;SDS011;36472;52.170;20.884;2023-08-20T03:51:34;19.40;;;17.45;;
21274;SDS011;36472;52.170;20.884;2023-08-20T03:54:03;19.13;;;17.30;;
21274;SDS011;36472;52.170;20.884;2023-08-20T03:56:32;18.70;;;16.80;;
21274;SDS011;36472;52.170;20.884;2023-08-20T03:59:01;18.77;;;16.98;;
21274;SDS011;36472;52.170;20.884;2023-08-20T04:01:32;19.10;;;17.25;;
21274;SDS011;36472;52.170;20.884;2023-08-20T04:04:04;19.33;;;17.23;;
21274;SDS011;36472;52.170;20.884;2023-08-20T04:06:33;19.38;;;17.48;;
21274;SDS011;36472;52.170;20.884;2023-08-20T04:09:02;18.67;;;16.73;;
21274;SDS011;36472;52.170;20.884;2023-08-20T04:11:32;19.35;;;17.40;;
21274;SDS011;36472;52.170;20.884;2023-08-20T04:14:02;19.40;;;17.40;;
21274;SDS011;36472;52.170;20.884;2023-08-20T04:16:33;18.85;;;16.95;;
21274;SDS011;36472;52.170;20.884;2023-08-20T04:19:02;18.00;;;16.10;;
21274;SDS011;36472;52.170;20.884;2023-08-20T04:21:31;19.48;;;17.67;;
21274;SDS011;36472;52.170;20.884;2023-08-20T04:24:00;19.60;;;16.58;;
21274;SDS011;36472;52.170;20.884;2023-08-20T04:26:30;18.13;;;16.52;;
21274;SDS011;36472;52.170;20.884;2023-08-20T04:28:59;18.52;;;16.55;;
21274;SDS011;36472;52.170;20.884;2023-08-20T04:31:30;18.40;;;16.55;;
21274;SDS011;36472;52.170;20.884;2023-08-20T04:34:05;16.55;;;14.85;;
21274;SDS011;36472;52.170;20.884;2023-08-20T04:36:42;17.50;;;15.68;;
21274;SDS011;36472;52.170;20.884;2023-08-20T04:39:11;17.38;;;15.63;;
21274;SDS011;36472;52.170;20.884;2023-08-20T04:41:45;17.48;;;15.68;;
21274;SDS011;36472;52.170;20.884;2023-08-20T04:44:16;16.95;;;15.40;;
21274;SDS011;36472;52.170;20.884;2023-08-20T04:46:46;17.23;;;15.73;;
21274;SDS011;36472;52.170;20.884;2023-08-20T04:49:18;16.92;;;15.32;;
21274;SDS011;36472;52.170;20.884;2023-08-20T04:51:47;16.77;;;15.13;;
21274;SDS011;36472;52.170;20.884;2023-08-20T04:54:17;17.38;;;15.60;;
21274;SDS011;36472;52.170;20.884;2023-08-20T04:56:46;17.23;;;15.50;;
21274;SDS011;36472;52.170;20.884;2023-08-20T04:59:15;18.33;;;16.63;;
21274;SDS011;36472;52.170;20.884;2023-08-20T05:01:53;19.00;;;17.00;;
21274;SDS011;36472;52.170;20.884;2023-08-20T05:04:38;19.10;;;17.20;;
21274;SDS011;36472;52.170;20.884;2023-08-20T05:07:07;21.30;;;19.10;;
21274;SDS011;36472;52.170;20.884;2023-08-20T05:09:37;20.50;;;18.40;;
21274;SDS011;36472;52.170;20.884;2023-08-20T05:12:07;22.05;;;19.88;;
21274;SDS011;36472;52.170;20.884;2023-08-20T05:14:36;21.50;;;19.50;;
21274;SDS011;36472;52.170;20.884;2023-08-20T05:17:05;20.95;;;18.80;;
21274;SDS011;36472;52.170;20.884;2023-08-20T05:19:34;20.70;;;18.65;;
21274;SDS011;36472;52.170;20.884;2023-08-20T05:22:04;24.17;;;18.77;;
21274;SDS011;36472;52.170;20.884;2023-08-20T05:24:35;20.05;;;18.17;;
21274;SDS011;36472;52.170;20.884;2023-08-20T05:27:05;22.25;;;20.00;;
21274;SDS011;36472;52.170;20.884;2023-08-20T05:29:36;22.15;;;19.95;;
21274;SDS011;36472;52.170;20.884;2023-08-20T05:32:06;23.05;;;20.15;;
21274;SDS011;36472;52.170;20.884;2023-08-20T05:34:36;22.13;;;19.95;;
21274;SDS011;36472;52.170;20.884;2023-08-20T05:37:06;20.45;;;18.60;;
21274;SDS011;36472;52.170;20.884;2023-08-20T05:39:40;21.20;;;19.00;;
21274;SDS011;36472;52.170;20.884;2023-08-20T05:42:11;21.83;;;19.73;;
21274;SDS011;36472;52.170;20.884;2023-08-20T05:44:46;20.83;;;18.92;;
21274;SDS011;36472;52.170;20.884;2023-08-20T05:47:20;21.77;;;18.45;;
21274;SDS011;36472;52.170;20.884;2023-08-20T05:49:49;21.77;;;19.65;;
21274;SDS011;36472;52.170;20.884;2023-08-20T05:52:20;21.80;;;19.38;;
21274;SDS011;36472;52.170;20.884;2023-08-20T05:54:49;22.10;;;19.98;;
21274;SDS011;36472;52.170;20.884;2023-08-20T05:57:18;21.08;;;19.05;;
21274;SDS011;36472;52.170;20.884;2023-08-20T05:59:48;21.10;;;19.15;;
21274;SDS011;36472;52.170;20.884;2023-08-20T06:02:18;21.20;;;19.27;;
21274;SDS011;36472;52.170;20.884;2023-08-20T06:04:48;21.15;;;19.10;;
21274;SDS011;36472;52.170;20.884;2023-08-20T06:07:19;21.48;;;19.48;;
21274;SDS011;36472;52.170;20.884;2023-08-20T06:09:48;20.92;;;18.90;;
21274;SDS011;36472;52.170;20.884;2023-08-20T06:12:17;19.90;;;18.13;;
21274;SDS011;36472;52.170;20.884;2023-08-20T06:14:46;21.17;;;18.92;;
21274;SDS011;36472;52.170;20.884;2023-08-20T06:17:15;22.02;;;19.58;;
21274;SDS011;36472;52.170;20.884;2023-08-20T06:19:45;20.88;;;18.85;;
21274;SDS011;36472;52.170;20.884;2023-08-20T06:22:14;20.13;;;18.20;;
21274;SDS011;36472;52.170;20.884;2023-08-20T06:24:44;20.70;;;18.80;;
21274;SDS011;36472;52.170;20.884;2023-08-20T06:27:13;19.90;;;17.83;;
21274;SDS011;36472;52.170;20.884;2023-08-20T06:29:42;19.67;;;17.75;;
21274;SDS011;36472;52.170;20.884;2023-08-20T06:32:11;21.63;;;19.65;;
21274;SDS011;36472;52.170;20.884;2023-08-20T06:34:40;22.17;;;19.75;;
21274;SDS011;36472;52.170;20.884;2023-08-20T06:37:09;21.08;;;18.90;;
21274;SDS011;36472;52.170;20.884;2023-08-20T06:39:38;20.88;;;18.77;;
21274;SDS011;36472;52.170;20.884;2023-08-20T06:42:09;21.30;;;19.20;;
21274;SDS011;36472;52.170;20.884;2023-08-20T06:44:38;20.75;;;18.15;;
21274;SDS011;36472;52.170;20.884;2023-08-20T06:47:07;20.45;;;18.50;;
21274;SDS011;36472;52.170;20.884;2023-08-20T06:49:35;20.10;;;18.20;;
21274;SDS011;36472;52.170;20.884;2023-08-20T06:52:05;19.48;;;17.48;;
21274;SDS011;36472;52.170;20.884;2023-08-20T06:54:34;19.25;;;17.42;;
21274;SDS011;36472;52.170;20.884;2023-08-20T06:57:03;20.10;;;18.20;;
21274;SDS011;36472;52.170;20.884;2023-08-20T06:59:34;19.17;;;17.27;;
21274;SDS011;36472;52.170;20.884;2023-08-20T07:02:03;18.83;;;17.15;;
21274;SDS011;36472;52.170;20.884;2023-08-20T07:04:31;18.63;;;16.65;;
21274;SDS011;36472;52.170;20.884;2023-08-20T07:07:01;20.95;;;18.88;;
21274;SDS011;36472;52.170;20.884;2023-08-20T07:09:31;19.63;;;17.73;;
21274;SDS011;36472;52.170;20.884;2023-08-20T07:12:01;18.65;;;17.10;;
21274;SDS011;36472;52.170;20.884;2023-08-20T07:14:30;19.77;;;17.95;;
21274;SDS011;36472;52.170;20.884;2023-08-20T07:17:01;19.85;;;18.05;;
21274;SDS011;36472;52.170;20.884;2023-08-20T07:19:30;19.75;;;17.70;;
21274;SDS011;36472;52.170;20.884;2023-08-20T07:21:59;18.25;;;16.65;;
21274;SDS011;36472;52.170;20.884;2023-08-20T07:24:28;18.15;;;16.30;;
21274;SDS011;36472;52.170;20.884;2023-08-20T07:27:02;19.27;;;17.58;;
21274;SDS011;36472;52.170;20.884;2023-08-20T07:29:37;18.38;;;16.42;;
21274;SDS011;36472;52.170;20.884;2023-08-20T07:32:08;17.80;;;16.23;;
21274;SDS011;36472;52.170;20.884;2023-08-20T07:34:38;18.45;;;16.65;;
21274;SDS011;36472;52.170;20.884;2023-08-20T07:37:08;18.70;;;17.02;;
21274;SDS011;36472;52.170;20.884;2023-08-20T07:39:37;17.80;;;15.82;;
21274;SDS011;36472;52.170;20.884;2023-08-20T07:42:07;17.58;;;15.80;;
21274;SDS011;36472;52.170;20.884;2023-08-20T07:44:37;16.70;;;14.90;;
21274;SDS011;36472;52.170;20.884;2023-08-20T07:47:06;15.45;;;14.05;;
21274;SDS011;36472;52.170;20.884;2023-08-20T07:49:36;15.70;;;13.80;;
21274;SDS011;36472;52.170;20.884;2023-08-20T07:52:05;14.90;;;13.50;;
21274;SDS011;36472;52.170;20.884;2023-08-20T07:54:34;16.70;;;15.10;;
21274;SDS011;36472;52.170;20.884;2023-08-20T07:57:03;16.73;;;15.13;;
21274;SDS011;36472;52.170;20.884;2023-08-20T07:59:32;15.18;;;13.77;;
21274;SDS011;36472;52.170;20.884;2023-08-20T08:02:01;14.20;;;13.02;;
21274;SDS011;36472;52.170;20.884;2023-08-20T08:04:31;15.05;;;13.75;;
21274;SDS011;36472;52.170;20.884;2023-08-20T08:07:01;14.25;;;13.05;;
21274;SDS011;36472;52.170;20.884;2023-08-20T08:09:31;14.98;;;13.75;;
21274;SDS011;36472;52.170;20.884;2023-08-20T08:12:00;16.02;;;14.55;;
21274;SDS011;36472;52.170;20.884;2023-08-20T08:14:30;16.08;;;14.38;;
21274;SDS011;36472;52.170;20.884;2023-08-20T08:16:59;17.83;;;13.93;;
21274;SDS011;36472;52.170;20.884;2023-08-20T08:19:28;13.98;;;12.70;;
21274;SDS011;36472;52.170;20.884;2023-08-20T08:21:57;14.32;;;13.18;;
21274;SDS011;36472;52.170;20.884;2023-08-20T08:24:27;16.00;;;13.73;;
21274;SDS011;36472;52.170;20.884;2023-08-20T08:26:56;14.52;;;13.25;;
21274;SDS011;36472;52.170;20.884;2023-08-20T08:29:25;13.95;;;12.52;;
21274;SDS011;36472;52.170;20.884;2023-08-20T08:31:54;13.02;;;11.93;;
21274;SDS011;36472;52.170;20.884;2023-08-20T08:34:23;13.73;;;12.63;;
21274;SDS011;36472;52.170;20.884;2023-08-20T08:36:52;13.38;;;12.35;;
21274;SDS011;36472;52.170;20.884;2023-08-20T08:39:21;13.70;;;12.50;;
21274;SDS011;36472;52.170;20.884;2023-08-20T08:41:53;15.05;;;13.57;;
21274;SDS011;36472;52.170;20.884;2023-08-20T08:44:32;14.10;;;12.88;;
21274;SDS011;36472;52.170;20.884;2023-08-20T08:47:01;12.90;;;11.80;;
21274;SDS011;36472;52.170;20.884;2023-08-20T08:49:30;13.63;;;12.35;;
21274;SDS011;36472;52.170;20.884;2023-08-20T08:52:03;13.45;;;12.25;;
21274;SDS011;36472;52.170;20.884;2023-08-20T08:54:33;14.23;;;13.05;;
21274;SDS011;36472;52.170;20.884;2023-08-20T08:57:05;14.02;;;12.63;;
21274;SDS011;36472;52.170;20.884;2023-08-20T08:59:34;14.23;;;12.80;;
21274;SDS011;36472;52.170;20.884;2023-08-20T09:02:05;14.50;;;13.30;;
21274;SDS011;36472;52.170;20.884;2023-08-20T09:04:38;14.43;;;13.23;;
21274;SDS011;36472;52.170;20.884;2023-08-20T09:07:11;14.63;;;13.43;;
21274;SDS011;36472;52.170;20.884;2023-08-20T09:09:44;14.25;;;12.98;;
21274;SDS011;36472;52.170;20.884;2023-08-20T09:12:18;14.73;;;13.32;;
21274;SDS011;36472;52.170;20.884;2023-08-20T09:14:49;13.00;;;11.93;;
21274;SDS011;36472;52.170;20.884;2023-08-20T09:17:22;13.73;;;12.38;;
21274;SDS011;36472;52.170;20.884;2023-08-20T09:19:55;13.85;;;12.50;;
21274;SDS011;36472;52.170;20.884;2023-08-20T09:22:26;13.68;;;12.40;;
21274;SDS011;36472;52.170;20.884;2023-08-20T09:24:55;13.55;;;12.35;;
21274;SDS011;36472;52.170;20.884;2023-08-20T09:27:26;14.07;;;12.77;;
21274;SDS011;36472;52.170;20.884;2023-08-20T09:29:56;13.20;;;11.90;;
21274;SDS011;36472;52.170;20.884;2023-08-20T09:32:27;13.02;;;11.80;;
21274;SDS011;36472;52.170;20.884;2023-08-20T09:34:56;12.25;;;11.13;;
21274;SDS011;36472;52.170;20.884;2023-08-20T09:37:26;12.88;;;11.77;;
21274;SDS011;36472;52.170;20.884;2023-08-20T09:39:55;12.73;;;11.70;;
21274;SDS011;36472;52.170;20.884;2023-08-20T09:42:24;12.57;;;11.48;;
21274;SDS011;36472;52.170;20.884;2023-08-20T09:44:59;12.63;;;11.32;;
21274;SDS011;36472;52.170;20.884;2023-08-20T09:52:06;11.10;;;10.20;;
21274;SDS011;36472;52.170;20.884;2023-08-20T09:54:43;11.98;;;10.98;;
21274;SDS011;36472;52.170;20.884;2023-08-20T09:57:29;11.70;;;10.70;;
21274;SDS011;36472;52.170;20.884;2023-08-20T10:00:03;12.02;;;10.80;;
21274;SDS011;36472;52.170;20.884;2023-08-20T10:02:40;12.40;;;11.27;;
21274;SDS011;36472;52.170;20.884;2023-08-20T10:05:11;12.80;;;11.65;;
21274;SDS011;36472;52.170;20.884;2023-08-20T10:07:42;12.93;;;11.75;;
21274;SDS011;36472;52.170;20.884;2023-08-20T10:10:13;11.65;;;10.65;;
21274;SDS011;36472;52.170;20.884;2023-08-20T10:12:45;12.20;;;11.10;;
21274;SDS011;36472;52.170;20.884;2023-08-20T10:15:15;12.63;;;11.63;;
21274;SDS011;36472;52.170;20.884;2023-08-20T10:17:45;12.60;;;11.32;;
21274;SDS011;36472;52.170;20.884;2023-08-20T10:20:14;12.48;;;11.48;;
21274;SDS011;36472;52.170;20.884;2023-08-20T10:22:44;12.50;;;11.20;;
21274;SDS011;36472;52.170;20.884;2023-08-20T10:25:24;12.60;;;11.60;;
21274;SDS011;36472;52.170;20.884;2023-08-20T10:28:10;12.60;;;11.43;;
21274;SDS011;36472;52.170;20.884;2023-08-20T10:33:39;12.40;;;11.30;;
21274;SDS011;36472;52.170;20.884;2023-08-20T10:36:18;12.90;;;11.75;;
21274;SDS011;36472;52.170;20.884;2023-08-20T10:38:50;12.95;;;11.82;;
21274;SDS011;36472;52.170;20.884;2023-08-20T10:41:25;12.40;;;11.35;;
21274;SDS011;36472;52.170;20.884;2023-08-20T10:43:58;13.55;;;12.35;;
21274;SDS011;36472;52.170;20.884;2023-08-20T10:46:28;13.32;;;12.05;;
21274;SDS011;36472;52.170;20.884;2023-08-20T10:48:59;13.45;;;12.35;;
21274;SDS011;36472;52.170;20.884;2023-08-20T10:51:31;12.43;;;11.38;;
21274;SDS011;36472;52.170;20.884;2023-08-20T10:54:02;12.80;;;11.55;;
21274;SDS011;36472;52.170;20.884;2023-08-20T10:56:38;13.40;;;12.18;;
21274;SDS011;36472;52.170;20.884;2023-08-20T10:59:13;13.95;;;12.55;;
21274;SDS011;36472;52.170;20.884;2023-08-20T11:01:44;13.07;;;11.88;;
21274;SDS011;36472;52.170;20.884;2023-08-20T11:04:14;13.05;;;11.98;;
21274;SDS011;36472;52.170;20.884;2023-08-20T11:06:46;12.48;;;11.38;;
21274;SDS011;36472;52.170;20.884;2023-08-20T11:09:21;12.20;;;11.20;;
21274;SDS011;36472;52.170;20.884;2023-08-20T11:11:51;12.90;;;11.70;;
21274;SDS011;36472;52.170;20.884;2023-08-20T11:14:22;12.15;;;11.15;;
21274;SDS011;36472;52.170;20.884;2023-08-20T11:16:52;12.70;;;11.63;;
21274;SDS011;36472;52.170;20.884;2023-08-20T11:19:21;12.93;;;11.73;;
21274;SDS011;36472;52.170;20.884;2023-08-20T11:21:52;12.77;;;11.57;;
21274;SDS011;36472;52.170;20.884;2023-08-20T11:24:21;12.60;;;11.40;;
21274;SDS011;36472;52.170;20.884;2023-08-20T11:26:50;13.40;;;12.18;;
21274;SDS011;36472;52.170;20.884;2023-08-20T11:29:25;13.10;;;11.75;;
21274;SDS011;36472;52.170;20.884;2023-08-20T11:31:54;12.48;;;11.23;;
21274;SDS011;36472;52.170;20.884;2023-08-20T11:34:24;12.13;;;11.02;;
21274;SDS011;36472;52.170;20.884;2023-08-20T11:36:54;12.77;;;11.60;;
21274;SDS011;36472;52.170;20.884;2023-08-20T11:39:24;12.32;;;11.32;;
21274;SDS011;36472;52.170;20.884;2023-08-20T11:41:53;12.27;;;11.27;;
21274;SDS011;36472;52.170;20.884;2023-08-20T11:44:22;12.70;;;11.60;;
21274;SDS011;36472;52.170;20.884;2023-08-20T11:46:53;12.88;;;11.77;;
21274;SDS011;36472;52.170;20.884;2023-08-20T11:49:29;12.52;;;11.32;;
21274;SDS011;36472;52.170;20.884;2023-08-20T11:51:57;12.88;;;11.68;;
21274;SDS011;36472;52.170;20.884;2023-08-20T11:54:27;13.10;;;12.00;;
21274;SDS011;36472;52.170;20.884;2023-08-20T11:57:02;13.05;;;12.05;;
21274;SDS011;36472;52.170;20.884;2023-08-20T11:59:34;13.35;;;12.10;;
21274;SDS011;36472;52.170;20.884;2023-08-20T12:02:03;13.48;;;12.38;;
21274;SDS011;36472;52.170;20.884;2023-08-20T12:04:32;13.52;;;11.98;;
21274;SDS011;36472;52.170;20.884;2023-08-20T12:07:02;14.23;;;13.02;;
21274;SDS011;36472;52.170;20.884;2023-08-20T12:09:34;14.57;;;13.18;;
21274;SDS011;36472;52.170;20.884;2023-08-20T12:12:04;15.40;;;14.10;;
21274;SDS011;36472;52.170;20.884;2023-08-20T12:14:37;14.15;;;12.95;;
21274;SDS011;36472;52.170;20.884;2023-08-20T12:17:09;14.80;;;13.50;;
21274;SDS011;36472;52.170;20.884;2023-08-20T12:19:38;15.52;;;14.10;;
21274;SDS011;36472;52.170;20.884;2023-08-20T12:22:07;15.10;;;13.80;;
21274;SDS011;36472;52.170;20.884;2023-08-20T12:24:36;14.85;;;13.30;;
21274;SDS011;36472;52.170;20.884;2023-08-20T12:27:07;14.05;;;12.75;;
21274;SDS011;36472;52.170;20.884;2023-08-20T12:29:39;14.23;;;12.98;;
21274;SDS011;36472;52.170;20.884;2023-08-20T12:32:08;14.90;;;13.60;;
21274;SDS011;36472;52.170;20.884;2023-08-20T12:34:37;15.05;;;13.85;;
21274;SDS011;36472;52.170;20.884;2023-08-20T12:37:08;14.43;;;13.32;;
21274;SDS011;36472;52.170;20.884;2023-08-20T12:39:38;15.93;;;14.40;;
21274;SDS011;36472;52.170;20.884;2023-08-20T12:42:07;15.00;;;13.70;;
21274;SDS011;36472;52.170;20.884;2023-08-20T12:44:37;15.38;;;14.07;;
21274;SDS011;36472;52.170;20.884;2023-08-20T12:47:08;14.90;;;13.65;;
21274;SDS011;36472;52.170;20.884;2023-08-20T12:49:39;13.48;;;12.38;;
21274;SDS011;36472;52.170;20.884;2023-08-20T12:52:08;14.18;;;13.07;;
21274;SDS011;36472;52.170;20.884;2023-08-20T12:54:39;14.45;;;12.95;;
21274;SDS011;36472;52.170;20.884;2023-08-20T12:57:07;14.18;;;12.85;;
21274;SDS011;36472;52.170;20.884;2023-08-20T12:59:37;13.55;;;12.45;;
21274;SDS011;36472;52.170;20.884;2023-08-20T13:02:08;13.73;;;12.55;;
21274;SDS011;36472;52.170;20.884;2023-08-20T13:04:37;14.02;;;12.77;;
21274;SDS011;36472;52.170;20.884;2023-08-20T13:07:11;14.23;;;13.02;;
21274;SDS011;36472;52.170;20.884;2023-08-20T13:09:42;14.43;;;13.13;;
21274;SDS011;36472;52.170;20.884;2023-08-20T13:12:12;14.02;;;12.70;;
21274;SDS011;36472;52.170;20.884;2023-08-20T13:14:47;14.50;;;12.95;;
21274;SDS011;36472;52.170;20.884;2023-08-20T13:17:18;14.55;;;13.27;;
21274;SDS011;36472;52.170;20.884;2023-08-20T13:19:49;14.60;;;13.25;;
21274;SDS011;36472;52.170;20.884;2023-08-20T13:22:17;14.88;;;13.63;;
21274;SDS011;36472;52.170;20.884;2023-08-20T13:24:47;14.40;;;13.20;;
21274;SDS011;36472;52.170;20.884;2023-08-20T13:27:16;14.23;;;13.02;;
21274;SDS011;36472;52.170;20.884;2023-08-20T13:29:46;15.02;;;13.65;;
21274;SDS011;36472;52.170;20.884;2023-08-20T13:32:15;14.55;;;13.27;;
21274;SDS011;36472;52.170;20.884;2023-08-20T13:34:45;14.10;;;12.80;;
21274;SDS011;36472;52.170;20.884;2023-08-20T13:37:14;14.85;;;13.48;;
21274;SDS011;36472;52.170;20.884;2023-08-20T13:39:44;14.70;;;13.35;;
21274;SDS011;36472;52.170;20.884;2023-08-20T13:42:13;15.40;;;13.93;;
21274;SDS011;36472;52.170;20.884;2023-08-20T13:44:43;14.27;;;13.07;;
21274;SDS011;36472;52.170;20.884;2023-08-20T13:47:12;15.00;;;13.80;;
21274;SDS011;36472;52.170;20.884;2023-08-20T13:49:41;14.95;;;13.60;;
21274;SDS011;36472;52.170;20.884;2023-08-20T13:52:11;15.00;;;13.80;;
21274;SDS011;36472;52.170;20.884;2023-08-20T13:54:41;15.10;;;13.82;;
21274;SDS011;36472;52.170;20.884;2023-08-20T13:57:10;14.75;;;13.55;;
21274;SDS011;36472;52.170;20.884;2023-08-20T13:59:40;14.98;;;13.73;;
21274;SDS011;36472;52.170;20.884;2023-08-20T14:02:09;14.20;;;13.00;;
21274;SDS011;36472;52.170;20.884;2023-08-20T14:04:39;14.57;;;13.18;;
21274;SDS011;36472;52.170;20.884;2023-08-20T14:07:08;13.43;;;12.43;;
21274;SDS011;36472;52.170;20.884;2023-08-20T14:09:39;13.73;;;12.43;;
21274;SDS011;36472;52.170;20.884;2023-08-20T14:12:08;15.73;;;13.10;;
21274;SDS011;36472;52.170;20.884;2023-08-20T14:14:38;13.30;;;12.05;;
21274;SDS011;36472;52.170;20.884;2023-08-20T14:17:07;13.98;;;12.77;;
21274;SDS011;36472;52.170;20.884;2023-08-20T14:19:36;13.00;;;11.90;;
21274;SDS011;36472;52.170;20.884;2023-08-20T14:22:05;12.68;;;11.48;;
21274;SDS011;36472;52.170;20.884;2023-08-20T14:24:38;12.57;;;11.57;;
21274;SDS011;36472;52.170;20.884;2023-08-20T14:27:07;12.23;;;11.02;;
21274;SDS011;36472;52.170;20.884;2023-08-20T14:29:38;12.88;;;11.68;;
21274;SDS011;36472;52.170;20.884;2023-08-20T14:32:09;12.38;;;11.18;;
21274;SDS011;36472;52.170;20.884;2023-08-20T14:34:38;13.70;;;12.40;;
21274;SDS011;36472;52.170;20.884;2023-08-20T14:41:41;12.88;;;11.75;;
21274;SDS011;36472;52.170;20.884;2023-08-20T14:44:10;12.70;;;11.10;;
21274;SDS011;36472;52.170;20.884;2023-08-20T14:46:39;11.90;;;10.95;;
21274;SDS011;36472;52.170;20.884;2023-08-20T14:49:08;12.30;;;11.18;;